Terminal Aerodrome Forecast
Issued by NWS Grand Forks, ND

Home | Current Version | Previous Version | Graphics & Text | Print | Product List | Glossary On
Versions: 1 2 3 4 5 6 7 8 9 10 11 12 13 14 15 16 17 18
000
FTUS43 KFGF 252102 AAA
TAFGFK
TAF AMD
KGFK 252102Z 2521/2618 31027G40KT P6SM -RA BKN040
     FM260000 31018G27KT P6SM VCSH BKN050
     FM260100 30014KT P6SM VCSH BKN050
     FM260200 30013KT P6SM BKN045
     FM260500 30013KT P6SM SCT150=

USA.gov is the U.S. government's official web portal to all federal, state and local government web resources and services.